Time;durP1;ratioP1;P1;durP2;ratioP2;P2;SDS_P1;SDS_P2;PMS_P1;PMS_P2;Temp;Humidity;BMP_temperature;BMP_pressure;BME280_temperature;BME280_humidity;BME280_pressure;Samples;Min_cycle;Max_cycle;Signal;HPM_P1;HPM_P2
2022/10/15 06:41:26;;;;;;;2.30;1.42;;;;;;;14.06;100.00;98425.66;5142486;27;20872;-78
2022/10/15 06:43:53;;;;;;;1.38;1.27;;;;;;;14.22;100.00;98447.97;5092668;28;20055;-77
2022/10/15 06:46:19;;;;;;;1.33;1.25;;;;;;;14.18;100.00;98436.63;5089406;28;20059;-78
2022/10/15 06:48:48;;;;;;;1.73;1.33;;;;;;;14.28;100.00;98447.91;5090717;28;20056;-78
2022/10/15 06:51:15;;;;;;;3.25;1.75;;;;;;;14.47;100.00;98462.44;5086059;28;20067;-78
2022/10/15 06:53:42;;;;;;;8.50;2.20;;;;;;;14.42;100.00;98456.81;5084604;28;20044;-78
2022/10/15 06:56:09;;;;;;;1.85;1.58;;;;;;;14.54;100.00;98447.84;5075473;28;20048;-78
2022/10/15 06:58:37;;;;;;;7.50;2.70;;;;;;;14.78;100.00;98482.50;5091583;28;20509;-79
2022/10/15 07:01:05;;;;;;;2.25;1.30;;;;;;;14.69;100.00;98482.00;5075164;28;20515;-78
2022/10/15 07:03:32;;;;;;;1.80;0.80;;;;;;;14.70;100.00;98480.09;5075491;28;20139;-78
2022/10/15 07:06:03;;;;;;;0.77;0.77;;;;;;;14.76;100.00;98487.38;5087411;28;20051;-78
2022/10/15 07:08:29;;;;;;;2.53;0.95;;;;;;;14.72;100.00;98475.22;5087561;28;20052;-79
2022/10/15 07:10:56;;;;;;;0.77;0.77;;;;;;;14.78;100.00;98487.16;5086268;28;20044;-78
2022/10/15 07:13:22;;;;;;;2.88;0.80;;;;;;;14.70;100.00;98482.81;5083919;28;20127;-78
2022/10/15 07:15:52;;;;;;;3.55;1.27;;;;;;;14.77;100.00;98483.59;5070598;28;20045;-78
2022/10/15 07:18:19;;;;;;;2.15;0.93;;;;;;;14.85;100.00;98501.59;5079293;28;20484;-78
2022/10/15 07:20:46;;;;;;;2.10;1.33;;;;;;;14.80;100.00;98493.25;5086271;28;20044;-78
2022/10/15 07:23:12;;;;;;;2.55;0.60;;;;;;;14.92;100.00;98516.03;5083885;28;20050;-78
2022/10/15 07:25:39;;;;;;;0.50;0.50;;;;;;;14.68;100.00;98499.47;5093996;28;20048;-78
2022/10/15 07:28:06;;;;;;;0.93;0.68;;;;;;;14.69;100.00;98503.88;5086565;28;20048;-78
2022/10/15 07:30:33;;;;;;;4.18;0.70;;;;;;;14.80;100.00;98506.94;5076550;28;20135;-78
2022/10/15 07:33:00;;;;;;;0.50;0.50;;;;;;;14.83;100.00;98511.94;5088347;28;20479;-78
2022/10/15 07:35:27;;;;;;;0.50;0.50;;;;;;;14.80;100.00;98496.81;5088508;28;20052;-79
2022/10/15 07:37:54;;;;;;;1.83;0.98;;;;;;;14.98;100.00;98520.59;5077597;28;20119;-79
2022/10/15 07:40:21;;;;;;;0.77;0.70;;;;;;;15.04;100.00;98522.41;5090677;28;20051;-78
2022/10/15 07:42:53;;;;;;;1.25;0.60;;;;;;;15.04;100.00;98508.72;5088346;28;20048;-79
2022/10/15 07:45:19;;;;;;;0.82;0.80;;;;;;;15.13;100.00;98505.66;5083822;28;20056;-79
2022/10/15 07:47:46;;;;;;;0.52;0.52;;;;;;;15.17;100.00;98512.34;5087812;28;20044;-78
2022/10/15 07:50:14;;;;;;;1.35;0.70;;;;;;;15.26;100.00;98516.44;5085789;28;20050;-78
2022/10/15 07:52:40;;;;;;;3.80;0.80;;;;;;;15.34;100.00;98540.78;5061867;28;20128;-79
2022/10/15 07:55:08;;;;;;;0.30;0.30;;;;;;;15.19;100.00;98508.31;5064710;28;20415;-80
2022/10/15 07:57:34;;;;;;;0.80;0.70;;;;;;;15.36;100.00;98532.31;5066119;28;20043;-81
2022/10/15 08:00:01;;;;;;;1.13;0.55;;;;;;;15.41;100.00;98535.19;5074147;28;20062;-81
2022/10/15 08:02:27;;;;;;;0.63;0.63;;;;;;;15.36;100.00;98532.31;5081173;28;20045;-81
2022/10/15 08:04:54;;;;;;;0.98;0.73;;;;;;;15.42;100.00;98534.13;5083440;28;20048;-80
2022/10/15 08:07:22;;;;;;;4.10;0.70;;;;;;;15.42;100.00;98534.13;5084339;28;20046;-80
2022/10/15 08:09:48;;;;;;;3.00;1.90;;;;;;;15.47;100.00;98534.25;5082578;28;20098;-77
2022/10/15 08:12:15;;;;;;;0.52;0.52;;;;;;;15.35;100.00;98539.69;5070253;28;20490;-77
2022/10/15 08:14:41;;;;;;;0.70;0.50;;;;;;;15.53;100.00;98559.91;5073845;28;20048;-78
2022/10/15 08:17:08;;;;;;;0.77;0.60;;;;;;;15.56;100.00;98549.28;5079961;28;20181;-78
2022/10/15 08:19:35;;;;;;;1.15;0.60;;;;;;;15.52;100.00;98525.34;5076264;28;20074;-78
2022/10/15 08:22:01;;;;;;;1.33;0.80;;;;;;;15.55;100.00;98525.72;5075802;28;20525;-78
2022/10/15 08:24:30;;;;;;;1.38;0.73;;;;;;;15.49;100.00;98523.94;5080451;28;20548;-77
2022/10/15 08:26:57;;;;;;;1.17;0.60;;;;;;;15.60;100.00;98536.00;5080659;28;20051;-77
2022/10/15 08:29:24;;;;;;;2.05;0.57;;;;;;;15.65;100.00;98543.50;5064285;28;20052;-78
2022/10/15 08:31:51;;;;;;;2.30;0.65;;;;;;;15.58;100.00;98528.00;5075357;28;20058;-78
2022/10/15 08:34:17;;;;;;;1.58;0.68;;;;;;;15.60;100.00;98541.47;5063882;28;20048;-78
2022/10/15 08:36:44;;;;;;;0.63;0.63;;;;;;;15.69;100.00;98545.53;5083355;28;20048;-78
2022/10/15 08:39:10;;;;;;;1.42;0.77;;;;;;;15.59;100.00;98550.75;5063979;28;20071;-78
2022/10/15 08:41:43;;;;;;;7.70;0.85;;;;;;;15.51;100.00;98531.91;5058639;28;24415;-78
2022/10/15 08:44:17;;;;;;;0.63;0.52;;;;;;;15.32;100.00;98536.59;5059577;28;20053;-78
2022/10/15 08:46:49;;;;;;;2.78;0.80;;;;;;;15.46;100.00;98564.63;5077433;28;20052;-78
2022/10/15 08:49:35;;;;;;;3.85;0.60;;;;;;;15.30;100.00;98553.25;5085872;28;20076;-78
2022/10/15 08:52:12;;;;;;;0.50;0.50;;;;;;;15.31;100.00;98559.53;5081112;28;20066;-78
2022/10/15 08:54:39;;;;;;;3.78;0.70;;;;;;;15.26;100.00;98560.25;5061044;28;20051;-77
2022/10/15 08:57:19;;;;;;;7.55;0.80;;;;;;;15.08;100.00;98547.41;5059618;28;20048;-78
2022/10/15 08:59:54;;;;;;;2.38;0.60;;;;;;;15.17;100.00;98556.16;5052739;28;20048;-78
2022/10/15 09:02:25;;;;;;;2.13;0.70;;;;;;;15.12;100.00;98556.00;5057772;28;20121;-77
2022/10/15 09:04:59;;;;;;;1.55;0.82;;;;;;;15.02;100.00;98546.44;5055407;28;20424;-77
2022/10/15 09:07:35;;;;;;;0.60;0.60;;;;;;;15.08;100.00;98546.56;5084421;28;20077;-77
2022/10/15 09:10:12;;;;;;;5.97;1.13;;;;;;;15.15;100.00;98541.88;5073608;28;20041;-77
2022/10/15 09:12:50;;;;;;;2.58;0.80;;;;;;;15.37;100.00;98562.22;5069810;28;20084;-77
2022/10/15 09:15:19;;;;;;;2.20;0.90;;;;;;;15.31;100.00;98557.66;5057261;28;20517;-77
2022/10/15 09:17:49;;;;;;;3.08;0.88;;;;;;;15.31;100.00;98548.59;5062861;28;20075;-78
2022/10/15 09:20:18;;;;;;;0.77;0.68;;;;;;;15.38;100.00;98569.34;5074944;28;20510;-77
2022/10/15 09:22:49;;;;;;;2.08;0.77;;;;;;;15.49;100.00;98578.72;5059501;28;20447;-78
2022/10/15 09:25:18;;;;;;;2.65;0.60;;;;;;;15.37;100.00;98573.16;5083141;28;20079;-78
2022/10/15 09:27:48;;;;;;;5.20;0.90;;;;;;;15.57;100.00;98564.69;5079545;28;20411;-77
2022/10/15 09:30:27;;;;;;;1.60;0.77;;;;;;;15.56;100.00;98559.44;5075247;28;20048;-77
2022/10/15 09:33:00;;;;;;;2.83;1.10;;;;;;;15.62;100.00;98552.19;5074663;28;20496;-77
2022/10/15 09:35:30;;;;;;;1.05;0.52;;;;;;;15.57;100.00;98550.97;5068145;28;20063;-77
2022/10/15 09:38:06;;;;;;;1.98;0.63;;;;;;;15.66;100.00;98578.91;5063896;28;20086;-77
2022/10/15 09:40:46;;;;;;;0.43;0.43;;;;;;;15.58;100.00;98579.19;5067341;28;20084;-77
2022/10/15 09:43:22;;;;;;;0.40;0.40;;;;;;;15.48;100.00;98570.72;5068477;28;20056;-77
2022/10/15 09:45:49;;;;;;;0.45;0.30;;;;;;;15.56;100.00;98589.56;5068310;28;20060;-77
2022/10/15 09:48:19;;;;;;;2.97;0.50;;;;;;;15.41;100.00;98573.53;5060954;28;20415;-77
2022/10/15 09:50:49;;;;;;;;;;;;;;;15.56;100.00;98597.78;5079422;28;20415;-77
2022/10/15 09:53:21;;;;;;;0.93;0.40;;;;;;;15.46;100.00;98567.38;5064542;28;19935;-77
2022/10/15 09:55:53;;;;;;;0.50;0.50;;;;;;;15.56;100.00;98584.09;5062146;28;20044;-77
2022/10/15 09:58:25;;;;;;;0.85;0.68;;;;;;;15.49;100.00;98583.34;5065564;28;20179;-77
2022/10/15 10:00:54;;;;;;;1.38;0.77;;;;;;;15.47;100.00;98583.56;5057502;28;20056;-77
2022/10/15 10:03:23;;;;;;;2.97;0.70;;;;;;;15.50;100.00;98588.56;5055142;28;20563;-77
2022/10/15 10:05:50;;;;;;;4.22;0.60;;;;;;;15.66;100.00;98600.00;5055284;28;20492;-77
2022/10/15 10:08:20;;;;;;;1.90;0.70;;;;;;;15.56;100.00;98582.16;5053854;28;20052;-77
2022/10/15 10:10:53;;;;;;;;;;;;;;;15.67;100.00;98602.50;5056062;28;20075;-77
2022/10/15 10:13:25;;;;;;;1.38;0.77;;;;;;;15.60;100.00;98601.75;5057176;28;19925;-77
2022/10/15 10:15:54;;;;;;;0.82;0.70;;;;;;;15.66;100.00;98591.75;5074002;28;20049;-77
2022/10/15 10:18:23;;;;;;;0.77;0.75;;;;;;;15.93;100.00;98614.19;5063375;28;20057;-77
2022/10/15 10:20:57;;;;;;;1.02;0.90;;;;;;;15.97;100.00;98598.09;5057200;28;20510;-77
2022/10/15 10:23:28;;;;;;;4.68;1.00;;;;;;;16.20;100.00;98605.53;5066506;28;20052;-77
2022/10/15 10:25:56;;;;;;;1.48;1.00;;;;;;;16.37;100.00;98578.25;5057240;28;20048;-78
2022/10/15 10:28:29;;;;;;;1.67;0.85;;;;;;;16.51;100.00;98576.13;5060460;28;20045;-77
2022/10/15 10:31:07;;;;;;;9.27;1.10;;;;;;;16.69;100.00;98580.66;5065484;28;20051;-77
2022/10/15 10:33:43;;;;;;;3.50;0.70;;;;;;;16.70;100.00;98582.34;5067370;28;20045;-77
2022/10/15 10:36:21;;;;;;;1.20;0.63;;;;;;;16.82;100.00;98596.88;5065901;28;20075;-77
2022/10/15 10:38:56;;;;;;;1.67;0.80;;;;;;;16.79;100.00;98589.13;5052338;28;20063;-77
2022/10/15 10:41:23;;;;;;;1.17;0.73;;;;;;;16.98;100.00;98612.66;5061096;28;20051;-77
2022/10/15 10:43:55;;;;;;;1.02;0.57;;;;;;;16.96;100.00;98594.75;5051327;28;20048;-77
2022/10/15 10:46:23;;;;;;;1.77;0.70;;;;;;;17.04;100.00;98597.16;5051942;28;20049;-77
2022/10/15 10:48:51;;;;;;;1.08;0.98;;;;;;;17.28;100.00;98602.56;5053058;28;20480;-77
2022/10/15 10:51:20;;;;;;;3.13;0.50;;;;;;;17.47;100.00;98612.31;5062296;28;20141;-77
2022/10/15 10:53:51;;;;;;;0.85;0.60;;;;;;;17.48;100.00;98597.50;5070225;28;20047;-77
2022/10/15 10:56:22;;;;;;;0.88;0.45;;;;;;;17.46;100.00;98616.16;5061548;28;20052;-77
2022/10/15 10:58:55;;;;;;;0.82;0.50;;;;;;;17.30;100.00;98590.28;5067022;28;20059;-77
2022/10/15 11:01:22;;;;;;;1.35;0.50;;;;;;;17.48;100.00;98608.50;5060428;28;20048;-77
2022/10/15 11:03:50;;;;;;;0.65;0.60;;;;;;;17.57;100.00;98606.22;5060221;28;20137;-78
2022/10/15 11:06:39;;;;;;;1.10;0.88;;;;;;;17.56;100.00;98587.22;5058906;28;20049;-77
2022/10/15 11:09:15;;;;;;;1.02;0.63;;;;;;;17.44;100.00;98598.25;5063244;28;20053;-77
2022/10/15 11:11:53;;;;;;;1.75;0.50;;;;;;;17.60;100.00;98588.38;5063871;28;20071;-78
2022/10/15 11:14:33;;;;;;;1.05;0.40;;;;;;;17.73;100.00;98582.59;5071932;28;20139;-78
2022/10/15 11:17:08;;;;;;;0.52;0.47;;;;;;;17.75;100.00;98601.59;5073903;28;20054;-78
2022/10/15 11:19:41;;;;;;;1.23;0.60;;;;;;;17.40;100.00;98584.13;5076123;28;20135;-78
2022/10/15 11:22:31;;;;;;;1.42;0.60;;;;;;;17.64;100.00;98590.41;5077028;28;20531;-78
2022/10/15 11:25:08;;;;;;;1.20;0.67;;;;;;;17.61;100.00;98579.88;5066021;28;20072;-77
2022/10/15 11:27:51;;;;;;;5.05;0.60;;;;;;;17.86;100.00;98564.97;5058238;28;20299;-78
2022/10/15 11:30:31;;;;;;;0.80;0.68;;;;;;;18.00;100.00;98571.00;5067086;28;20400;-78
2022/10/15 11:33:14;;;;;;;2.70;0.43;;;;;;;18.03;100.00;98587.03;5079252;28;20139;-77
2022/10/15 11:35:45;;;;;;;0.90;0.60;;;;;;;18.13;100.00;98578.13;5064391;28;20564;-77
2022/10/15 11:38:23;;;;;;;2.08;0.52;;;;;;;18.11;100.00;98577.53;5061503;28;20105;-78
2022/10/15 11:41:08;;;;;;;0.45;0.40;;;;;;;18.12;100.00;98582.78;5074198;28;20056;-78
2022/10/15 11:44:03;;;;;;;3.58;0.68;;;;;;;17.80;100.00;98565.97;5067848;28;20492;-79
2022/10/15 11:46:40;;;;;;;1.20;0.90;;;;;;;17.60;100.00;98564.50;5058851;28;20080;-77
2022/10/15 11:49:19;;;;;;;0.50;0.50;;;;;;;17.67;100.00;98567.09;5056227;28;20041;-77
2022/10/15 11:52:05;;;;;;;1.02;0.60;;;;;;;17.83;100.00;98566.28;5056862;28;20049;-77
2022/10/15 11:54:37;;;;;;;2.13;0.88;;;;;;;17.84;100.00;98567.97;5062497;28;20136;-78
2022/10/15 11:57:08;;;;;;;0.73;0.63;;;;;;;18.03;100.00;98549.34;5056939;28;20047;-77
2022/10/15 11:59:42;;;;;;;2.38;0.80;;;;;;;18.28;100.00;98542.63;5061140;28;20053;-77
2022/10/15 12:02:15;;;;;;;1.77;0.60;;;;;;;18.50;100.00;98555.59;5057499;28;20507;-77
2022/10/15 12:04:46;;;;;;;1.60;0.52;;;;;;;18.29;100.00;98540.69;5055015;28;20144;-77
2022/10/15 12:07:18;;;;;;;1.60;0.80;;;;;;;18.31;100.00;98546.78;5066927;28;20052;-78
2022/10/15 12:09:50;;;;;;;1.10;0.50;;;;;;;18.34;100.00;98551.78;5056498;28;20490;-75
2022/10/15 12:12:30;;;;;;;0.22;0.22;;;;;;;18.26;100.00;98554.94;5055910;28;20060;-76
2022/10/15 12:15:12;;;;;;;0.50;0.50;;;;;;;18.19;100.00;98555.13;5056966;28;20080;-76
2022/10/15 12:17:50;;;;;;;0.40;0.30;;;;;;;18.22;100.00;98562.88;5064722;28;20086;-76
2022/10/15 12:20:20;;;;;;;0.70;0.60;;;;;;;17.83;100.00;98538.78;5057280;28;20040;-76
2022/10/15 12:23:04;;;;;;;0.85;0.60;;;;;;;17.89;100.00;98560.91;5056471;28;20040;-76
2022/10/15 12:25:49;;;;;;;3.00;0.60;;;;;;;17.82;100.00;98574.78;5057315;28;20128;-76
2022/10/15 12:28:19;;;;;;;1.15;0.70;;;;;;;17.79;100.00;98551.34;5060553;28;20056;-75
2022/10/15 12:30:58;;;;;;;0.50;0.50;;;;;;;17.72;100.00;98552.59;5051361;28;20049;-76
2022/10/15 12:33:32;;;;;;;4.57;1.65;;;;;;;17.71;100.00;98545.44;5059665;28;20052;-76
2022/10/15 12:36:01;;;;;;;1.20;0.60;;;;;;;17.66;100.00;98538.78;5062692;28;20055;-76
2022/10/15 12:38:30;;;;;;;2.35;0.70;;;;;;;17.66;100.00;98541.53;5062940;28;20074;-75
2022/10/15 12:41:01;;;;;;;5.15;0.82;;;;;;;17.66;100.00;98538.78;5059375;28;20051;-76
2022/10/15 12:43:29;;;;;;;1.08;0.60;;;;;;;17.60;100.00;98544.41;5061200;28;20055;-76
2022/10/15 12:45:59;;;;;;;0.63;0.43;;;;;;;17.67;100.00;98536.84;5061430;28;20510;-75
2022/10/15 12:48:32;;;;;;;4.53;0.70;;;;;;;17.62;100.00;98545.00;5054173;28;20041;-75
2022/10/15 12:51:39;;;;;;;0.77;0.50;;;;;;;17.62;100.00;98556.00;5067550;28;20047;-76
2022/10/15 12:54:38;;;;;;;0.50;0.40;;;;;;;17.36;100.00;98562.91;5055011;28;20053;-76
2022/10/15 12:57:38;;;;;;;0.40;0.40;;;;;;;17.42;100.00;98553.66;5068541;28;20047;-76
2022/10/15 13:00:29;;;;;;;5.78;0.60;;;;;;;17.29;100.00;98532.84;5061194;28;20051;-76
2022/10/15 13:03:07;;;;;;;3.20;0.55;;;;;;;17.21;100.00;98531.31;5055967;28;20140;-76
2022/10/15 13:05:36;;;;;;;1.55;0.40;;;;;;;17.41;100.00;98561.09;5056621;28;20106;-76
2022/10/15 13:08:11;;;;;;;1.27;0.68;;;;;;;17.12;100.00;98533.59;5054653;28;20053;-76
2022/10/15 13:10:40;;;;;;;0.95;0.40;;;;;;;17.26;100.00;98538.81;5055971;28;20071;-76
2022/10/15 13:13:13;;;;;;;1.77;0.70;;;;;;;17.32;100.00;98546.06;5059434;28;20419;-76
2022/10/15 13:15:40;;;;;;;2.90;0.98;;;;;;;17.31;100.00;98553.50;5056011;28;20131;-77
2022/10/15 13:18:11;;;;;;;4.57;0.82;;;;;;;17.25;100.00;98537.13;5059924;28;20606;-76
2022/10/15 13:20:40;;;;;;;1.75;0.60;;;;;;;17.27;100.00;98546.00;5059774;28;20049;-76
2022/10/15 13:23:09;;;;;;;2.55;0.70;;;;;;;17.25;100.00;98545.38;5066851;28;20399;-76
2022/10/15 13:25:35;;;;;;;2.17;0.50;;;;;;;17.21;100.00;98538.69;5064302;28;20150;-76
2022/10/15 13:28:02;;;;;;;2.17;0.80;;;;;;;17.29;100.00;98561.13;5062063;28;20595;-76
2022/10/15 13:30:29;;;;;;;1.00;0.70;;;;;;;17.49;100.00;98557.97;5070093;28;20607;-76
2022/10/15 13:32:56;;;;;;;0.68;0.50;;;;;;;17.29;100.00;98563.88;5056752;28;20575;-76
2022/10/15 13:35:27;;;;;;;6.45;0.60;;;;;;;17.19;100.00;98558.16;5062285;28;20052;-76
2022/10/15 13:37:57;;;;;;;3.33;0.80;;;;;;;17.06;100.00;98558.47;5057638;28;20311;-76
2022/10/15 13:40:25;;;;;;;2.92;0.60;;;;;;;16.96;100.00;98540.66;5059211;28;20052;-76
2022/10/15 13:42:59;;;;;;;1.70;0.60;;;;;;;16.95;100.00;98533.53;5065431;28;20365;-76
2022/10/15 13:45:26;;;;;;;1.08;0.38;;;;;;;17.11;100.00;98550.31;5055447;28;20531;-76
2022/10/15 13:47:54;;;;;;;2.60;0.55;;;;;;;17.19;100.00;98562.84;5055060;28;20049;-76
2022/10/15 13:50:23;;;;;;;4.35;0.60;;;;;;;17.15;100.00;98552.34;5078207;28;20051;-76
2022/10/15 13:52:53;;;;;;;3.50;0.68;;;;;;;17.11;100.00;98533.84;5051953;28;20101;-76
2022/10/15 13:55:24;;;;;;;0.57;0.40;;;;;;;17.15;100.00;98532.28;5070056;28;20074;-76
2022/10/15 13:57:55;;;;;;;0.80;0.50;;;;;;;17.38;100.00;98556.09;5057882;28;20049;-76
2022/10/15 14:00:25;;;;;;;4.13;0.63;;;;;;;17.38;100.00;98556.09;5056021;28;20486;-76
2022/10/15 14:03:16;;;;;;;1.83;0.52;;;;;;;17.07;100.00;98529.91;5050126;28;20123;-76
2022/10/15 14:05:44;;;;;;;0.82;0.60;;;;;;;17.25;100.00;98559.09;5053927;28;20045;-75
2022/10/15 14:08:22;;;;;;;0.65;0.50;;;;;;;17.06;100.00;98553.78;5058620;28;20507;-76
2022/10/15 14:10:52;;;;;;;0.63;0.60;;;;;;;16.99;100.00;98553.09;5063098;28;20053;-76
2022/10/15 14:13:18;;;;;;;3.00;0.90;;;;;;;17.04;100.00;98549.59;5054878;28;20153;-75
2022/10/15 14:16:01;;;;;;;3.92;0.63;;;;;;;17.04;100.00;98557.84;5054781;28;20048;-76
2022/10/15 14:18:34;;;;;;;2.38;0.63;;;;;;;16.83;100.00;98549.16;5072352;28;20094;-76
2022/10/15 14:21:01;;;;;;;2.17;0.60;;;;;;;16.74;100.00;98559.66;5060761;28;20052;-76
2022/10/15 14:23:28;;;;;;;2.65;1.88;;;;;;;16.79;100.00;98575.41;5063788;28;20044;-76
2022/10/15 14:25:59;;;;;;;0.82;0.77;;;;;;;16.59;100.00;98551.91;5059266;28;20051;-76
2022/10/15 14:28:28;;;;;;;2.25;1.23;;;;;;;16.60;100.00;98567.28;5050326;28;20052;-76
2022/10/15 14:30:55;;;;;;;3.80;1.40;;;;;;;16.62;100.00;98551.44;5061312;28;20044;-76
2022/10/15 14:33:43;;;;;;;2.15;1.73;;;;;;;16.67;100.00;98561.69;5048678;28;20127;-76
2022/10/15 14:36:25;;;;;;;1.20;0.90;;;;;;;16.55;100.00;98575.41;5051291;28;20123;-76
2022/10/15 14:38:53;;;;;;;0.95;0.70;;;;;;;16.38;100.00;98566.19;5055307;28;20503;-76
2022/10/15 14:41:27;;;;;;;4.43;0.82;;;;;;;16.42;100.00;98564.66;5067855;28;20130;-76
2022/10/15 14:44:04;;;;;;;1.40;0.60;;;;;;;16.59;100.00;98562.03;5072795;28;20055;-76
2022/10/15 14:46:37;;;;;;;1.70;1.05;;;;;;;16.55;100.00;98558.94;5076540;28;20127;-76
2022/10/15 14:49:14;;;;;;;1.27;0.70;;;;;;;16.49;100.00;98562.63;5067309;28;20049;-76
2022/10/15 14:51:41;;;;;;;2.17;0.82;;;;;;;16.43;100.00;98561.69;5064632;28;20139;-76
2022/10/15 14:54:18;;;;;;;2.55;0.90;;;;;;;16.37;100.00;98553.56;5059579;28;20055;-76
2022/10/15 14:56:46;;;;;;;0.57;0.57;;;;;;;16.40;100.00;98559.41;5056826;28;20048;-76
2022/10/15 14:59:18;;;;;;;1.75;0.80;;;;;;;16.51;100.00;98563.22;5066356;28;20048;-76
2022/10/15 15:01:53;;;;;;;1.10;0.60;;;;;;;16.70;100.00;98563.13;5067044;28;20137;-76
2022/10/15 15:04:33;;;;;;;0.70;0.70;;;;;;;16.56;100.00;98538.66;5065804;28;20060;-76
2022/10/15 15:07:00;;;;;;;3.22;0.70;;;;;;;16.73;100.00;98548.94;5062294;28;20128;-76
2022/10/15 15:09:27;;;;;;;2.65;0.70;;;;;;;16.76;100.00;98543.78;5075671;28;20052;-76
2022/10/15 15:11:54;;;;;;;3.28;0.70;;;;;;;16.80;100.00;98538.63;5060890;28;20047;-76
2022/10/15 15:14:24;;;;;;;0.82;0.68;;;;;;;17.14;100.00;98550.66;5083222;28;20083;-76
2022/10/15 15:16:50;;;;;;;5.93;0.70;;;;;;;17.07;100.00;98527.16;5065054;28;20056;-76
2022/10/15 15:19:17;;;;;;;0.88;0.68;;;;;;;17.16;100.00;98543.03;5069194;28;20312;-76
2022/10/15 15:21:44;;;;;;;1.50;0.80;;;;;;;17.08;100.00;98553.56;5072818;28;20048;-76
2022/10/15 15:24:11;;;;;;;3.60;0.77;;;;;;;16.93;100.00;98526.59;5071481;28;20139;-76
2022/10/15 15:26:38;;;;;;;0.63;0.63;;;;;;;16.76;100.00;98535.53;5074891;28;20135;-76
2022/10/15 15:29:12;;;;;;;1.73;0.80;;;;;;;16.80;100.00;98544.13;5071764;28;20137;-76
2022/10/15 15:31:38;;;;;;;0.80;0.73;;;;;;;16.63;100.00;98541.28;5070939;28;20060;-76
2022/10/15 15:34:05;;;;;;;1.35;0.73;;;;;;;16.52;100.00;98542.13;5058629;28;20371;-76
2022/10/15 15:36:31;;;;;;;2.20;0.65;;;;;;;16.59;100.00;98560.13;5050979;28;20208;-76
2022/10/15 15:38:58;;;;;;;2.45;0.82;;;;;;;16.46;100.00;98541.16;5061912;28;20045;-76
2022/10/15 15:41:25;;;;;;;2.13;0.80;;;;;;;16.51;100.00;98543.19;5054554;28;20052;-76
2022/10/15 15:43:53;;;;;;;0.70;0.70;;;;;;;16.42;100.00;98554.53;5061900;28;20374;-76
2022/10/15 15:46:21;;;;;;;1.20;0.63;;;;;;;16.50;100.00;98574.44;5058126;28;20264;-76
2022/10/15 15:48:48;;;;;;;2.70;0.70;;;;;;;16.27;100.00;98555.00;5059461;28;20048;-76
2022/10/15 15:51:20;;;;;;;1.92;0.60;;;;;;;16.31;100.00;98554.53;5077618;28;20053;-76
2022/10/15 15:53:47;;;;;;;1.38;0.80;;;;;;;16.53;100.00;98563.84;5075412;28;20048;-76
2022/10/15 15:56:14;;;;;;;4.97;0.90;;;;;;;16.38;100.00;98541.50;5070764;28;20049;-76
2022/10/15 15:58:40;;;;;;;3.63;0.85;;;;;;;16.39;100.00;98549.50;5056791;28;20048;-76
2022/10/15 16:01:07;;;;;;;3.78;1.00;;;;;;;16.19;100.00;98544.38;5059739;28;20044;-76
2022/10/15 16:03:36;;;;;;;1.17;1.02;;;;;;;16.40;100.00;98567.63;5056972;28;20045;-76
2022/10/15 16:06:05;;;;;;;3.42;0.90;;;;;;;16.39;100.00;98567.88;5075845;28;20056;-76
2022/10/15 16:08:32;;;;;;;2.83;1.10;;;;;;;16.26;100.00;98566.22;5055467;28;20044;-76
2022/10/15 16:11:00;;;;;;;1.52;1.20;;;;;;;16.13;100.00;98559.03;5059640;28;20098;-76
2022/10/15 16:13:27;;;;;;;2.10;0.85;;;;;;;16.11;100.00;98569.41;5053522;28;20045;-76
2022/10/15 16:15:54;;;;;;;2.40;0.90;;;;;;;16.15;100.00;98578.81;5057172;28;20063;-76
2022/10/15 16:18:20;;;;;;;2.03;0.73;;;;;;;16.01;100.00;98583.69;5066741;28;20475;-76
2022/10/15 16:20:49;;;;;;;3.13;1.23;;;;;;;16.04;100.00;98587.88;5055178;28;20051;-76
2022/10/15 16:23:16;;;;;;;5.13;1.20;;;;;;;15.88;100.00;98581.13;5053934;28;20076;-76
2022/10/15 16:25:43;;;;;;;2.83;0.80;;;;;;;15.75;100.00;98565.72;5056583;28;20402;-76
2022/10/15 16:28:09;;;;;;;2.78;0.98;;;;;;;15.72;100.00;98568.91;5065480;28;20053;-76
2022/10/15 16:30:36;;;;;;;6.70;0.82;;;;;;;15.80;100.00;98576.81;5067250;28;20170;-76
2022/10/15 16:33:03;;;;;;;2.45;1.00;;;;;;;15.84;100.00;98591.75;5067219;28;20393;-76
2022/10/15 16:35:29;;;;;;;1.52;1.02;;;;;;;15.62;100.00;98568.63;5061220;28;20052;-76
2022/10/15 16:37:57;;;;;;;3.15;0.88;;;;;;;15.75;100.00;98602.16;5079230;28;20383;-76
2022/10/15 16:40:24;;;;;;;2.58;1.05;;;;;;;15.52;100.00;98588.34;5061420;28;20048;-76
2022/10/15 16:42:50;;;;;;;5.90;1.00;;;;;;;15.52;100.00;98578.25;5059031;28;20045;-76
2022/10/15 16:45:17;;;;;;;2.15;1.10;;;;;;;15.41;100.00;98587.22;5073277;28;20135;-76
2022/10/15 16:47:44;;;;;;;4.28;1.10;;;;;;;15.60;100.00;98604.47;5076360;28;20051;-76
2022/10/15 16:50:10;;;;;;;3.20;1.20;;;;;;;15.54;100.00;98606.22;5085973;28;20130;-75
2022/10/15 16:52:37;;;;;;;6.15;1.08;;;;;;;15.35;100.00;98593.63;5072742;28;20067;-76
2022/10/15 16:55:06;;;;;;;3.95;1.10;;;;;;;15.28;100.00;98590.13;5069525;28;20079;-76
2022/10/15 16:57:32;;;;;;;3.17;1.23;;;;;;;15.40;100.00;98629.38;5071078;28;20127;-76
2022/10/15 16:59:59;;;;;;;2.33;1.55;;;;;;;15.37;100.00;98621.63;5075078;28;20129;-75
2022/10/15 17:02:26;;;;;;;5.05;3.72;;;;;;;15.27;100.00;98627.66;5069762;28;20052;-76
2022/10/15 17:04:52;;;;;;;6.78;3.35;;;;;;;15.24;100.00;98630.00;5066165;28;20466;-76
2022/10/15 17:07:19;;;;;;;2.47;1.98;;;;;;;15.22;100.00;98630.25;5075510;28;20044;-76
2022/10/15 17:09:47;;;;;;;5.40;1.58;;;;;;;15.17;100.00;98641.03;5073586;28;20071;-76
2022/10/15 17:12:15;;;;;;;2.08;1.10;;;;;;;15.31;100.00;98650.78;5061259;28;20060;-76
2022/10/15 17:14:41;;;;;;;1.90;1.00;;;;;;;15.40;100.00;98654.03;5053085;28;20484;-76
2022/10/15 17:17:08;;;;;;;2.30;0.77;;;;;;;15.26;100.00;98644.31;5068783;28;20052;-76
2022/10/15 17:19:34;;;;;;;5.00;1.02;;;;;;;15.28;100.00;98643.00;5061344;28;20124;-76
2022/10/15 17:22:01;;;;;;;1.48;1.20;;;;;;;15.24;100.00;98643.72;5069446;28;20067;-76
2022/10/15 17:24:27;;;;;;;1.08;0.98;;;;;;;15.26;100.00;98642.38;5061858;28;20084;-76
2022/10/15 17:26:56;;;;;;;7.15;1.60;;;;;;;15.41;100.00;98677.63;5078476;28;20050;-76
2022/10/15 17:29:24;;;;;;;3.80;1.27;;;;;;;15.28;100.00;98656.72;5063320;28;20139;-76
2022/10/15 17:31:51;;;;;;;3.55;0.88;;;;;;;15.35;100.00;98673.88;5049324;28;20483;-77
2022/10/15 17:34:18;;;;;;;2.42;0.80;;;;;;;15.28;100.00;98664.06;5058427;28;20043;-76
2022/10/15 17:36:47;;;;;;;2.28;1.00;;;;;;;15.31;100.00;98659.00;5065389;28;20058;-76
2022/10/15 17:39:15;;;;;;;2.10;0.90;;;;;;;15.43;100.00;98685.59;5051861;28;20138;-76
2022/10/15 17:41:42;;;;;;;0.85;0.60;;;;;;;15.44;100.00;98690.84;5062529;28;20315;-76
2022/10/15 17:44:10;;;;;;;1.70;0.82;;;;;;;15.33;100.00;98658.75;5065856;28;20063;-76
2022/10/15 17:46:38;;;;;;;2.20;1.30;;;;;;;15.39;100.00;98687.97;5064644;28;20136;-76
2022/10/15 17:49:06;;;;;;;1.98;0.90;;;;;;;15.32;100.00;98684.47;5052369;28;20048;-76
2022/10/15 17:51:34;;;;;;;7.30;1.08;;;;;;;15.36;100.00;98692.00;5058251;28;20056;-76
2022/10/15 17:54:01;;;;;;;3.67;1.05;;;;;;;15.35;100.00;98684.00;5058070;28;20048;-76
2022/10/15 17:56:29;;;;;;;1.00;0.68;;;;;;;15.44;100.00;98699.06;5071547;28;20052;-76
2022/10/15 17:58:56;;;;;;;3.13;0.98;;;;;;;15.43;100.00;98700.16;5077326;28;20108;-76
2022/10/15 18:01:26;;;;;;;2.00;1.00;;;;;;;15.27;100.00;98684.31;5058432;28;20049;-76
2022/10/15 18:03:54;;;;;;;1.38;0.82;;;;;;;15.18;100.00;98668.16;5055872;28;21896;-76
2022/10/15 18:06:22;;;;;;;0.80;0.80;;;;;;;15.14;100.00;98666.13;5072992;28;20142;-76
2022/10/15 18:08:49;;;;;;;1.33;0.80;;;;;;;15.31;100.00;98705.53;5058279;28;20076;-76
2022/10/15 18:11:19;;;;;;;1.73;0.80;;;;;;;15.14;100.00;98680.63;5062243;28;20075;-76
2022/10/15 18:13:46;;;;;;;2.85;0.70;;;;;;;15.06;100.00;98685.59;5056426;28;20044;-76
2022/10/15 18:16:12;;;;;;;1.20;0.80;;;;;;;15.02;100.00;98690.66;5070488;28;20090;-76
2022/10/15 18:18:39;;;;;;;1.33;0.75;;;;;;;14.96;100.00;98675.97;5063795;28;20052;-76
2022/10/15 18:21:11;;;;;;;4.90;0.90;;;;;;;15.08;100.00;98700.69;5049564;28;20057;-76
2022/10/15 18:23:37;;;;;;;1.70;1.05;;;;;;;14.86;100.00;98679.22;5042528;28;20046;-76